Time;durP1;ratioP1;P1;durP2;ratioP2;P2;SDS_P1;SDS_P2;PMS_P1;PMS_P2;Temp;Humidity;BMP_temperature;BMP_pressure;BME280_temperature;BME280_humidity;BME280_pressure;Samples;Min_cycle;Max_cycle;Signal;HPM_P1;HPM_P2
2022/10/08 00:00:34;;;;;;;11.02;3.10;;;13.20;99.90;;;;;;5100108;27;20063;-82
2022/10/08 00:03:00;;;;;;;9.73;2.85;;;13.20;99.90;;;;;;5135263;27;20034;-82
2022/10/08 00:05:25;;;;;;;10.50;3.10;;;13.10;99.90;;;;;;5113539;27;20039;-82
2022/10/08 00:07:51;;;;;;;14.82;3.15;;;13.10;99.90;;;;;;5121405;27;20111;-82
2022/10/08 00:10:17;;;;;;;13.77;3.10;;;13.00;99.90;;;;;;5096139;27;20039;-82
2022/10/08 00:12:43;;;;;;;12.15;3.10;;;13.00;99.90;;;;;;5137239;27;20042;-81
2022/10/08 00:15:09;;;;;;;8.93;2.60;;;13.00;99.90;;;;;;5151858;27;20095;-81
2022/10/08 00:17:35;;;;;;;12.13;2.80;;;13.00;99.90;;;;;;5119605;27;20118;-81
2022/10/08 00:20:00;;;;;;;10.82;2.85;;;12.90;99.90;;;;;;5094261;27;20158;-82
2022/10/08 00:22:26;;;;;;;14.32;3.00;;;12.90;99.90;;;;;;5100482;27;20062;-81
2022/10/08 00:24:52;;;;;;;15.32;3.13;;;12.90;99.90;;;;;;5119624;27;20031;-82
2022/10/08 00:27:22;;;;;;;13.88;3.30;;;12.90;99.90;;;;;;5129835;27;20038;-82
2022/10/08 00:29:50;;;;;;;11.57;3.25;;;12.80;99.90;;;;;;5120126;27;20035;-81
2022/10/08 00:32:18;;;;;;;10.95;3.25;;;12.80;99.90;;;;;;5135506;27;20113;-81
2022/10/08 00:34:46;;;;;;;12.27;3.33;;;12.80;99.90;;;;;;5119529;27;20562;-81
2022/10/08 00:37:12;;;;;;;10.07;3.50;;;12.80;99.90;;;;;;5115161;27;20455;-81
2022/10/08 00:39:38;;;;;;;12.60;3.65;;;12.80;99.90;;;;;;5131187;27;20043;-81
2022/10/08 00:42:04;;;;;;;11.90;3.40;;;12.70;99.90;;;;;;5106863;27;20126;-81
2022/10/08 00:45:00;;;;;;;11.20;3.70;;;12.70;99.90;;;;;;5124110;27;20494;-81
2022/10/08 00:47:37;;;;;;;13.55;3.92;;;12.70;99.90;;;;;;5141835;27;20091;-81
2022/10/08 00:50:32;;;;;;;11.98;3.67;;;12.70;99.90;;;;;;5140587;27;20495;-82
2022/10/08 00:53:01;;;;;;;12.18;3.13;;;12.70;99.90;;;;;;5141881;27;20030;-81
2022/10/08 00:55:28;;;;;;;7.38;3.20;;;12.70;99.90;;;;;;5142605;27;20099;-81
2022/10/08 00:58:01;;;;;;;11.63;3.00;;;12.70;99.90;;;;;;5150942;27;20039;-81
2022/10/08 01:00:28;;;;;;;10.57;3.10;;;12.70;99.90;;;;;;5157495;27;20121;-80
2022/10/08 01:02:54;;;;;;;7.60;2.80;;;12.70;99.90;;;;;;5150879;27;20085;-81
2022/10/08 01:05:43;;;;;;;11.63;3.30;;;12.70;99.90;;;;;;5121785;27;20035;-81
2022/10/08 01:08:38;;;;;;;6.85;2.83;;;12.80;99.90;;;;;;5150271;27;20046;-80
2022/10/08 01:11:35;;;;;;;7.60;2.72;;;12.70;99.90;;;;;;5141416;27;20089;-81
2022/10/08 01:14:09;;;;;;;11.90;2.78;;;12.70;99.90;;;;;;5133865;27;20077;-81
2022/10/08 01:17:03;;;;;;;9.70;2.90;;;12.70;99.90;;;;;;5133953;27;20042;-81
2022/10/08 01:19:53;;;;;;;10.68;3.20;;;12.70;99.90;;;;;;5131989;27;20030;-82
2022/10/08 01:22:56;;;;;;;5.45;2.90;;;12.70;99.90;;;;;;5139918;27;20077;-81
2022/10/08 01:25:34;;;;;;;10.05;3.00;;;12.70;99.90;;;;;;5137462;27;20486;-81
2022/10/08 01:28:37;;;;;;;9.95;2.50;;;12.60;99.90;;;;;;5130974;27;20046;-81
2022/10/08 01:31:17;;;;;;;5.80;2.50;;;12.60;99.90;;;;;;5139976;27;20042;-81
2022/10/08 01:33:57;;;;;;;5.18;2.63;;;12.60;99.90;;;;;;5151049;27;20038;-81
2022/10/08 01:36:26;;;;;;;7.85;2.70;;;12.60;99.90;;;;;;5135033;27;20030;-81
2022/10/08 01:38:58;;;;;;;9.90;3.15;;;12.50;99.90;;;;;;5140064;27;20039;-82
2022/10/08 01:41:28;;;;;;;8.20;2.58;;;12.50;99.90;;;;;;5138465;27;20030;-81
2022/10/08 01:44:18;;;;;;;8.40;2.45;;;12.50;99.90;;;;;;5135262;27;20035;-81
2022/10/08 01:46:47;;;;;;;7.70;2.40;;;12.50;99.90;;;;;;5135658;27;20034;-81
2022/10/08 01:49:19;;;;;;;7.78;2.53;;;12.40;99.90;;;;;;5139189;27;20121;-82
2022/10/08 01:51:54;;;;;;;5.30;2.35;;;12.40;99.90;;;;;;5130010;27;20050;-82
2022/10/08 01:54:24;;;;;;;5.85;2.13;;;12.40;99.90;;;;;;5131424;27;20042;-81
2022/10/08 01:56:53;;;;;;;6.28;2.42;;;12.40;99.90;;;;;;5130815;27;20079;-81
2022/10/08 01:59:25;;;;;;;5.93;2.00;;;12.40;99.90;;;;;;5130402;27;20070;-81
2022/10/08 02:01:57;;;;;;;10.20;2.47;;;12.40;99.90;;;;;;5147461;27;20041;-82
2022/10/08 02:04:33;;;;;;;6.50;2.08;;;12.40;99.90;;;;;;5139268;27;20035;-81
2022/10/08 02:07:06;;;;;;;5.13;2.05;;;12.40;99.90;;;;;;5137465;27;20066;-82
2022/10/08 02:09:41;;;;;;;6.93;2.13;;;12.30;99.90;;;;;;5134807;27;20053;-83
2022/10/08 02:12:10;;;;;;;7.60;1.80;;;12.30;99.90;;;;;;5138126;27;20038;-82
2022/10/08 02:14:49;;;;;;;5.90;1.80;;;12.20;99.90;;;;;;5149608;27;20509;-81
2022/10/08 02:17:23;;;;;;;2.58;1.67;;;12.20;99.90;;;;;;5139439;27;20049;-81
2022/10/08 02:19:55;;;;;;;4.25;1.70;;;12.20;99.90;;;;;;5155434;27;20498;-82
2022/10/08 02:22:26;;;;;;;6.55;2.17;;;12.20;99.90;;;;;;5135718;27;20502;-82
2022/10/08 02:25:01;;;;;;;7.78;2.10;;;12.20;99.90;;;;;;5156043;27;20035;-82
2022/10/08 02:27:56;;;;;;;4.13;1.60;;;12.10;99.90;;;;;;5127059;27;20045;-82
2022/10/08 02:30:23;;;;;;;6.72;2.40;;;12.10;99.90;;;;;;5107660;27;20049;-80
2022/10/08 02:33:15;;;;;;;4.68;1.75;;;12.00;99.90;;;;;;5139218;27;20467;-82
2022/10/08 02:39:10;;;;;;;4.68;1.88;;;12.00;99.90;;;;;;5139354;27;20154;-81
2022/10/08 02:42:00;;;;;;;5.22;1.83;;;12.00;99.90;;;;;;5148162;27;20031;-81
2022/10/08 02:44:43;;;;;;;6.72;2.00;;;11.90;99.90;;;;;;5153400;27;20034;-81
2022/10/08 02:47:58;;;;;;;7.32;2.45;;;11.90;99.90;;;;;;5134659;27;20390;-81
2022/10/08 02:50:50;;;;;;;6.88;2.00;;;11.90;99.90;;;;;;5138502;27;20085;-82
2022/10/08 02:53:47;;;;;;;6.75;1.90;;;11.80;99.90;;;;;;5136021;27;20067;-80
2022/10/08 03:00:02;;;;;;;3.40;1.85;;;11.80;99.90;;;;;;5150772;27;20041;-80
2022/10/08 03:02:55;;;;;;;5.43;1.92;;;11.80;99.90;;;;;;5135085;27;20043;-81
2022/10/08 03:05:31;;;;;;;7.75;2.17;;;11.80;99.90;;;;;;5148732;27;20034;-80
2022/10/08 03:11:44;;;;;;;6.90;2.20;;;11.70;99.90;;;;;;5139749;27;20046;-81
2022/10/08 03:14:25;;;;;;;7.53;2.00;;;11.80;99.90;;;;;;5155449;27;20046;-81
2022/10/08 03:23:23;;;;;;;4.47;1.90;;;11.70;99.90;;;;;;5137755;27;20046;-81
2022/10/08 03:29:31;;;;;;;5.75;2.15;;;11.70;99.90;;;;;;5112295;27;20042;-80
2022/10/08 03:35:17;;;;;;;7.25;2.38;;;11.60;99.90;;;;;;5147556;27;20038;-82
2022/10/08 03:37:48;;;;;;;5.97;2.10;;;11.60;99.90;;;;;;5116187;27;20049;-81
2022/10/08 03:40:38;;;;;;;;;;;;;;;;;;;;;
2022/10/08 03:43:13;;;;;;;6.03;2.25;;;11.50;99.90;;;;;;5148035;27;20034;-81
2022/10/08 03:49:13;;;;;;;6.45;2.03;;;11.50;99.90;;;;;;5131356;27;20133;-83
2022/10/08 03:55:14;;;;;;;7.07;2.63;;;11.50;99.90;;;;;;5080834;27;20106;-81
2022/10/08 03:57:57;;;;;;;6.53;2.20;;;11.50;99.90;;;;;;5109255;27;20055;-81
2022/10/08 04:00:37;;;;;;;5.35;2.30;;;11.40;99.90;;;;;;5113487;27;20043;-81
2022/10/08 04:06:55;;;;;;;5.78;2.15;;;11.50;99.90;;;;;;5129501;27;20043;-79
2022/10/08 04:09:30;;;;;;;8.98;2.58;;;11.40;99.90;;;;;;5092486;28;20434;-81
2022/10/08 04:12:12;;;;;;;9.15;2.45;;;11.50;99.90;;;;;;5074732;28;20047;-81
2022/10/08 04:14:37;;;;;;;5.90;2.47;;;11.40;99.90;;;;;;5098269;27;20077;-80
2022/10/08 04:17:15;;;;;;;7.00;2.83;;;11.50;99.90;;;;;;5097700;28;20106;-81
2022/10/08 04:19:51;;;;;;;7.93;2.45;;;11.50;99.90;;;;;;5108878;27;20103;-81
2022/10/08 04:22:47;;;;;;;11.32;3.00;;;11.50;99.90;;;;;;5122100;27;20054;-81
2022/10/08 04:28:22;;;;;;;8.15;2.90;;;11.60;99.90;;;;;;5130680;27;20102;-81
2022/10/08 04:31:30;;;;;;;6.65;2.38;;;11.60;99.90;;;;;;5135223;27;20042;-81
2022/10/08 04:34:08;;;;;;;5.55;2.45;;;11.60;99.90;;;;;;5119441;27;20043;-82
2022/10/08 04:37:19;;;;;;;6.97;2.20;;;11.60;99.90;;;;;;5118860;27;20078;-81
2022/10/08 04:42:31;;;;;;;9.05;2.58;;;11.50;99.90;;;;;;5139633;27;20039;-82
2022/10/08 04:45:00;;;;;;;7.25;2.67;;;11.50;99.90;;;;;;5136427;27;20054;-82
2022/10/08 04:47:29;;;;;;;10.05;2.70;;;11.50;99.90;;;;;;5108136;27;20047;-82
2022/10/08 04:50:00;;;;;;;8.82;2.47;;;11.50;99.90;;;;;;5121369;27;20035;-82
2022/10/08 04:52:54;;;;;;;8.60;3.00;;;11.50;99.90;;;;;;5134763;27;20046;-81
2022/10/08 04:55:29;;;;;;;6.53;2.53;;;11.60;99.90;;;;;;5135739;27;20038;-81
2022/10/08 04:57:58;;;;;;;8.00;2.67;;;11.50;99.90;;;;;;5119411;27;20062;-82
2022/10/08 05:00:24;;;;;;;8.95;2.97;;;11.50;99.90;;;;;;5134073;27;20023;-81
2022/10/08 05:03:15;;;;;;;8.95;2.85;;;11.50;99.90;;;;;;5136656;27;20519;-81
2022/10/08 05:05:50;;;;;;;7.80;2.80;;;11.50;99.90;;;;;;5113522;27;20035;-82
2022/10/08 05:08:33;;;;;;;6.55;3.13;;;11.50;99.90;;;;;;5113750;27;20051;-81
2022/10/08 05:11:12;;;;;;;7.47;2.78;;;11.50;99.90;;;;;;5132570;27;20039;-81
2022/10/08 05:17:55;;;;;;;10.30;2.90;;;11.40;99.90;;;;;;5139520;27;20038;-82
2022/10/08 05:23:43;;;;;;;7.35;2.90;;;11.30;99.90;;;;;;5140804;27;20486;-82
2022/10/08 05:30:02;;;;;;;5.75;3.00;;;11.30;99.90;;;;;;5153050;27;20034;-83
2022/10/08 05:33:32;;;;;;;9.73;2.90;;;11.20;99.90;;;;;;5130681;27;20099;-82
2022/10/08 05:36:23;;;;;;;5.28;2.53;;;11.20;99.90;;;;;;5149907;27;20042;-84
2022/10/08 05:42:32;;;;;;;6.80;3.10;;;11.10;99.90;;;;;;5140296;27;20043;-77
2022/10/08 05:44:58;;;;;;;9.43;3.65;;;11.10;99.90;;;;;;5136760;27;20039;-78
2022/10/08 05:47:29;;;;;;;7.00;3.58;;;11.10;99.90;;;;;;5119484;27;20552;-78
2022/10/08 05:50:04;;;;;;;11.13;4.55;;;11.10;99.90;;;;;;5154358;27;20516;-77
2022/10/08 05:52:38;;;;;;;14.40;4.72;;;11.00;99.90;;;;;;5119342;27;20057;-78
2022/10/08 05:55:28;;;;;;;7.32;4.07;;;11.00;99.90;;;;;;5097935;28;20096;-77
2022/10/08 05:58:02;;;;;;;9.80;3.75;;;11.00;99.90;;;;;;5090021;28;20048;-78
2022/10/08 06:00:33;;;;;;;8.70;3.83;;;11.00;99.90;;;;;;5107055;28;20031;-78
2022/10/08 06:03:26;;;;;;;13.00;3.47;;;10.90;99.90;;;;;;5073480;28;20051;-79
2022/10/08 06:06:21;;;;;;;13.05;3.60;;;10.90;99.90;;;;;;5076705;28;20108;-82
2022/10/08 06:08:58;;;;;;;9.60;3.58;;;10.90;99.90;;;;;;5054114;28;20089;-79
2022/10/08 06:11:35;;;;;;;8.45;3.83;;;10.90;99.90;;;;;;5046922;28;20044;-78
2022/10/08 06:14:23;;;;;;;9.65;3.95;;;10.90;99.90;;;;;;5086826;28;20055;-79
2022/10/08 06:16:52;;;;;;;10.82;4.43;;;10.90;99.90;;;;;;5071424;28;20040;-79
2022/10/08 06:19:21;;;;;;;10.60;4.63;;;10.90;99.90;;;;;;5086911;28;20055;-80
2022/10/08 06:21:47;;;;;;;12.20;4.22;;;10.90;99.90;;;;;;5088035;28;20061;-79
2022/10/08 06:24:47;;;;;;;11.00;4.63;;;10.90;99.90;;;;;;5048407;28;20052;-80
2022/10/08 06:30:08;;;;;;;7.57;4.10;;;10.90;99.90;;;;;;5069357;28;20055;-87
2022/10/08 06:32:34;;;;;;;16.15;4.22;;;10.90;99.90;;;;;;5081049;28;20071;-86
2022/10/08 06:34:59;;;;;;;11.07;4.35;;;11.00;99.90;;;;;;5115500;27;20103;-88
2022/10/08 06:37:25;;;;;;;11.35;4.45;;;11.00;99.90;;;;;;5137565;27;20045;-87
2022/10/08 06:39:50;;;;;;;12.00;3.70;;;11.00;99.90;;;;;;5137085;27;20043;-86
2022/10/08 06:42:16;;;;;;;10.63;3.75;;;11.00;99.90;;;;;;5141242;27;20091;-88
2022/10/08 06:44:42;;;;;;;11.38;4.15;;;11.10;99.90;;;;;;5106926;27;20491;-89
2022/10/08 06:47:08;;;;;;;10.07;3.63;;;11.00;99.90;;;;;;5119999;27;20031;-87
2022/10/08 06:49:34;;;;;;;10.10;3.67;;;11.10;99.90;;;;;;5105037;27;20043;-90
2022/10/08 06:51:59;;;;;;;9.40;3.35;;;11.00;99.90;;;;;;5120911;27;20043;-87
2022/10/08 06:54:26;;;;;;;11.30;3.78;;;11.10;99.90;;;;;;5124550;27;20064;-88
2022/10/08 06:56:51;;;;;;;9.75;3.42;;;11.10;99.90;;;;;;5122515;27;20483;-88
2022/10/08 06:59:17;;;;;;;12.95;3.85;;;11.10;99.90;;;;;;5121746;27;20059;-86
2022/10/08 07:01:44;;;;;;;11.90;3.72;;;11.10;99.90;;;;;;5151378;27;20031;-85
2022/10/08 07:04:10;;;;;;;8.88;3.05;;;11.20;99.90;;;;;;5119350;27;20043;-86
2022/10/08 07:06:36;;;;;;;12.32;3.60;;;11.30;99.90;;;;;;5115407;27;20039;-90
2022/10/08 07:09:03;;;;;;;13.63;3.67;;;11.30;99.90;;;;;;5099363;27;20068;-86
2022/10/08 07:11:31;;;;;;;9.00;2.75;;;11.40;99.90;;;;;;5158325;27;20049;-88
2022/10/08 07:13:58;;;;;;;8.95;2.55;;;11.40;99.90;;;;;;5153721;27;20094;-88
2022/10/08 07:16:25;;;;;;;12.30;3.03;;;11.50;99.90;;;;;;5141557;27;20098;-88
2022/10/08 07:18:52;;;;;;;10.15;2.58;;;11.50;99.90;;;;;;5141459;27;20079;-88
2022/10/08 07:21:20;;;;;;;15.18;2.55;;;11.50;99.90;;;;;;5120416;27;20035;-87
2022/10/08 07:23:46;;;;;;;8.18;2.17;;;11.60;99.90;;;;;;5139057;27;20402;-89
2022/10/08 07:26:17;;;;;;;10.50;3.58;;;11.60;99.90;;;;;;5140039;27;20035;-83
2022/10/08 07:29:05;;;;;;;11.35;2.00;;;11.60;99.90;;;;;;5136788;27;20498;-87
2022/10/08 07:31:34;;;;;;;8.30;2.17;;;11.70;99.90;;;;;;5158222;27;20039;-87
2022/10/08 07:34:01;;;;;;;15.18;2.97;;;11.70;99.90;;;;;;5140312;27;20045;-86
2022/10/08 07:36:28;;;;;;;13.05;2.25;;;11.70;99.90;;;;;;5140596;27;20033;-88
2022/10/08 07:38:59;;;;;;;10.63;2.10;;;11.70;99.90;;;;;;5120712;27;20035;-88
2022/10/08 07:41:25;;;;;;;9.93;2.00;;;11.70;99.90;;;;;;5158730;27;20038;-90
2022/10/08 07:43:53;;;;;;;10.73;2.05;;;11.80;99.90;;;;;;5140820;27;20035;-90
2022/10/08 07:46:19;;;;;;;8.35;1.92;;;11.80;99.90;;;;;;5157344;27;20031;-89
2022/10/08 07:48:45;;;;;;;9.27;2.78;;;11.90;99.90;;;;;;5137281;27;20490;-86
2022/10/08 07:51:14;;;;;;;5.90;1.90;;;12.00;99.90;;;;;;5139122;27;20095;-85
2022/10/08 07:53:40;;;;;;;14.82;2.10;;;12.00;99.90;;;;;;5157118;27;20065;-89
2022/10/08 07:56:07;;;;;;;9.35;1.90;;;12.00;99.90;;;;;;5141307;27;20034;-89
2022/10/08 07:58:34;;;;;;;9.25;2.17;;;12.10;99.90;;;;;;5145507;27;20080;-87
2022/10/08 08:01:02;;;;;;;7.22;1.83;;;12.10;99.90;;;;;;5139719;27;20042;-92
2022/10/08 08:03:28;;;;;;;12.55;2.03;;;12.20;99.90;;;;;;5140995;27;20042;-90
2022/10/08 08:06:10;;;;;;;7.63;1.85;;;12.20;99.90;;;;;;5141694;27;20095;-90
2022/10/08 08:08:38;;;;;;;10.60;2.22;;;12.20;99.90;;;;;;5142351;27;20042;-89
2022/10/08 08:11:05;;;;;;;10.13;1.85;;;12.30;99.90;;;;;;5142346;27;20063;-91
2022/10/08 08:13:32;;;;;;;11.48;2.15;;;12.30;99.90;;;;;;5143432;27;20075;-92
2022/10/08 08:16:01;;;;;;;9.25;1.92;;;12.30;99.90;;;;;;5126560;27;20061;-91
2022/10/08 08:18:31;;;;;;;6.80;1.50;;;12.40;99.90;;;;;;5139412;27;20043;-91
2022/10/08 08:21:05;;;;;;;8.02;1.42;;;12.40;99.90;;;;;;5157544;27;20038;-90
2022/10/08 08:23:37;;;;;;;8.95;1.48;;;12.50;99.90;;;;;;5140443;27;20042;-92
2022/10/08 08:26:12;;;;;;;11.35;1.48;;;12.60;99.90;;;;;;5162074;27;20038;-90
2022/10/08 08:28:38;;;;;;;7.47;1.42;;;12.60;99.90;;;;;;5144626;27;20038;-90
2022/10/08 08:31:15;;;;;;;7.63;1.42;;;12.60;99.90;;;;;;5151166;27;20082;-90
2022/10/08 08:33:42;;;;;;;8.50;1.80;;;12.70;99.90;;;;;;5145010;27;20046;-89
2022/10/08 08:36:08;;;;;;;9.13;1.67;;;12.70;99.90;;;;;;5136125;27;20031;-90
2022/10/08 08:38:38;;;;;;;5.80;1.52;;;12.80;99.90;;;;;;5162084;27;20045;-89
2022/10/08 08:41:32;;;;;;;4.45;1.42;;;12.80;99.90;;;;;;5140452;27;20035;-87
2022/10/08 08:44:20;;;;;;;8.50;1.63;;;12.80;99.90;;;;;;5160043;27;20205;-90
2022/10/08 08:46:59;;;;;;;9.75;1.98;;;12.80;99.90;;;;;;5154090;27;20038;-89
2022/10/08 08:49:25;;;;;;;8.85;2.03;;;12.90;99.90;;;;;;5159258;27;20050;-88
2022/10/08 08:51:52;;;;;;;8.60;1.60;;;12.90;99.90;;;;;;5160017;27;20086;-89
2022/10/08 08:54:18;;;;;;;6.32;1.67;;;13.00;99.90;;;;;;5121569;27;20494;-84
2022/10/08 08:56:43;;;;;;;11.68;1.90;;;13.10;99.90;;;;;;5139731;27;20038;-85
2022/10/08 08:59:27;;;;;;;8.68;1.65;;;13.10;99.90;;;;;;5139354;27;20068;-86
2022/10/08 09:01:57;;;;;;;5.53;1.50;;;13.10;99.90;;;;;;5157888;27;20038;-86
2022/10/08 09:04:28;;;;;;;5.28;1.30;;;13.20;99.90;;;;;;5138267;27;20390;-87
2022/10/08 09:06:57;;;;;;;8.20;1.27;;;13.20;99.90;;;;;;5143223;27;20474;-86
2022/10/08 09:09:34;;;;;;;5.20;1.60;;;13.20;99.90;;;;;;5140318;27;20042;-87
2022/10/08 09:12:20;;;;;;;5.82;1.67;;;13.20;99.90;;;;;;5160225;27;20039;-87
2022/10/08 09:14:53;;;;;;;9.10;1.83;;;13.30;99.90;;;;;;5138827;27;20103;-86
2022/10/08 09:17:26;;;;;;;10.02;1.92;;;13.40;99.90;;;;;;5139974;27;20126;-86
2022/10/08 09:19:53;;;;;;;9.98;1.27;;;13.50;99.90;;;;;;5143398;27;20041;-84
2022/10/08 09:22:30;;;;;;;7.47;1.30;;;13.60;99.90;;;;;;5125500;27;20618;-84
2022/10/08 09:24:59;;;;;;;10.25;1.45;;;13.60;99.90;;;;;;5153394;27;20038;-85
2022/10/08 09:27:42;;;;;;;6.38;1.80;;;13.70;99.90;;;;;;5151080;27;20034;-86
2022/10/08 09:30:36;;;;;;;9.27;1.50;;;13.80;99.90;;;;;;5155253;27;20371;-85
2022/10/08 09:33:11;;;;;;;10.75;1.77;;;13.90;99.90;;;;;;5138163;27;20091;-86
2022/10/08 09:35:51;;;;;;;8.55;1.75;;;14.00;99.90;;;;;;5140805;27;20039;-85
2022/10/08 09:38:34;;;;;;;17.63;2.13;;;14.00;99.90;;;;;;5157351;27;20096;-85
2022/10/08 09:41:06;;;;;;;9.30;1.58;;;14.10;99.90;;;;;;5141986;27;20047;-85
2022/10/08 09:43:35;;;;;;;7.15;1.35;;;14.30;99.90;;;;;;5156682;27;20508;-86
2022/10/08 09:46:10;;;;;;;9.05;1.67;;;14.30;99.90;;;;;;5124857;27;20027;-86
2022/10/08 09:48:36;;;;;;;7.40;1.10;;;14.40;99.90;;;;;;5147873;27;20047;-84
2022/10/08 09:51:16;;;;;;;11.05;1.45;;;14.40;99.90;;;;;;5110858;27;20498;-86
2022/10/08 09:53:46;;;;;;;6.55;1.73;;;14.40;99.90;;;;;;5116591;27;20043;-83
2022/10/08 09:56:13;;;;;;;7.82;1.30;;;14.40;99.90;;;;;;5156013;27;20034;-83
2022/10/08 09:59:01;;;;;;;8.15;1.48;;;14.40;99.90;;;;;;5137678;27;20051;-83
2022/10/08 10:01:30;;;;;;;10.77;1.33;;;14.50;99.90;;;;;;5134889;27;20075;-86
2022/10/08 10:03:58;;;;;;;5.72;1.58;;;14.50;99.90;;;;;;5138306;27;20465;-86
2022/10/08 10:06:36;;;;;;;7.97;1.55;;;14.50;99.90;;;;;;5134293;27;20432;-88
2022/10/08 10:09:28;;;;;;;9.13;1.55;;;14.60;99.90;;;;;;5138300;27;20039;-86
2022/10/08 10:12:05;;;;;;;5.70;1.52;;;14.60;99.90;;;;;;5157675;27;20502;-86
2022/10/08 10:14:45;;;;;;;8.43;1.45;;;14.70;99.90;;;;;;5153971;27;20054;-87
2022/10/08 10:17:49;;;;;;;12.63;2.30;;;14.70;99.90;;;;;;5158584;27;20046;-81
2022/10/08 10:20:25;;;;;;;8.48;1.77;;;14.60;99.90;;;;;;5143137;27;20131;-81
2022/10/08 10:23:06;;;;;;;6.93;1.50;;;14.40;99.90;;;;;;5135390;27;20035;-81
2022/10/08 10:25:47;;;;;;;12.23;1.95;;;14.20;99.90;;;;;;5146954;27;20428;-83
2022/10/08 10:28:30;;;;;;;11.93;1.80;;;13.90;99.90;;;;;;5130636;27;20039;-84
2022/10/08 10:31:02;;;;;;;10.13;1.88;;;13.80;99.90;;;;;;5140939;27;20042;-83
2022/10/08 10:33:36;;;;;;;9.30;1.80;;;13.70;99.90;;;;;;5158281;27;20073;-83
2022/10/08 10:36:08;;;;;;;9.40;2.00;;;13.60;99.90;;;;;;5158586;27;20038;-82
2022/10/08 10:38:58;;;;;;;16.00;2.50;;;13.50;99.90;;;;;;5134487;27;20039;-84
2022/10/08 10:41:32;;;;;;;15.00;2.55;;;13.40;99.90;;;;;;5142724;27;20038;-83
2022/10/08 10:44:05;;;;;;;9.35;2.10;;;13.30;99.90;;;;;;5155436;27;20087;-84
2022/10/08 10:46:50;;;;;;;8.40;2.08;;;13.20;99.90;;;;;;5166216;27;20094;-84
2022/10/08 10:49:27;;;;;;;9.38;1.90;;;13.20;99.90;;;;;;5146840;27;20047;-84
2022/10/08 10:52:05;;;;;;;9.50;1.52;;;13.20;99.90;;;;;;5114882;27;20039;-85
2022/10/08 10:54:48;;;;;;;6.38;1.30;;;13.10;99.90;;;;;;5136183;27;20039;-84
2022/10/08 10:57:27;;;;;;;11.00;1.83;;;13.00;99.90;;;;;;5140242;27;20069;-84
2022/10/08 11:00:08;;;;;;;13.90;1.80;;;13.00;99.90;;;;;;5130296;27;20043;-85
2022/10/08 11:02:45;;;;;;;7.30;1.40;;;13.10;99.90;;;;;;5157105;27;20372;-84
2022/10/08 11:05:28;;;;;;;7.00;1.92;;;13.10;99.90;;;;;;5156145;27;20038;-84
2022/10/08 11:08:08;;;;;;;7.38;1.70;;;13.10;99.90;;;;;;5134622;27;20034;-85
2022/10/08 11:10:59;;;;;;;5.18;1.27;;;13.20;99.90;;;;;;5140803;27;20143;-85
2022/10/08 11:13:34;;;;;;;6.85;1.35;;;13.30;99.90;;;;;;5140188;27;20073;-84
2022/10/08 11:16:03;;;;;;;6.93;1.40;;;13.40;99.90;;;;;;5136891;27;20057;-84
2022/10/08 11:18:54;;;;;;;7.22;1.42;;;13.50;99.90;;;;;;5125072;27;20039;-84
2022/10/08 11:21:41;;;;;;;6.75;1.77;;;13.70;99.90;;;;;;5136239;27;20043;-84
2022/10/08 11:24:22;;;;;;;10.55;1.67;;;13.80;99.90;;;;;;5131082;27;20385;-84
2022/10/08 11:27:20;;;;;;;10.02;1.60;;;13.90;99.90;;;;;;5131252;27;20042;-85
2022/10/08 11:30:19;;;;;;;8.77;1.95;;;13.90;99.90;;;;;;5111414;27;20406;-85
2022/10/08 11:32:51;;;;;;;4.72;1.30;;;14.00;99.90;;;;;;5154650;27;20034;-85
2022/10/08 11:35:40;;;;;;;5.47;1.38;;;14.10;99.90;;;;;;5154597;27;20121;-84
2022/10/08 11:38:14;;;;;;;8.55;1.42;;;14.20;99.90;;;;;;5149535;27;20050;-86
2022/10/08 11:40:50;;;;;;;6.22;1.20;;;14.30;99.90;;;;;;5138746;27;20478;-85
2022/10/08 11:43:50;;;;;;;7.28;1.25;;;14.40;99.90;;;;;;5158084;27;20179;-85
2022/10/08 11:46:27;;;;;;;6.45;1.27;;;14.40;99.90;;;;;;5130617;27;20126;-85
2022/10/08 11:48:55;;;;;;;6.35;1.10;;;14.50;99.90;;;;;;5137301;27;20099;-85
2022/10/08 11:51:21;;;;;;;8.13;1.38;;;14.50;99.90;;;;;;5139676;27;20045;-85
2022/10/08 11:54:13;;;;;;;6.95;1.70;;;14.60;99.90;;;;;;5140706;27;20034;-85
2022/10/08 11:56:46;;;;;;;7.57;1.52;;;14.70;99.90;;;;;;5135704;27;20043;-86
2022/10/08 11:59:24;;;;;;;10.70;1.65;;;14.70;99.90;;;;;;5138987;27;20041;-86
2022/10/08 12:01:54;;;;;;;9.80;1.55;;;14.80;99.90;;;;;;5157479;27;20035;-86
2022/10/08 12:04:35;;;;;;;10.38;2.03;;;14.90;99.90;;;;;;5137198;27;20031;-86
2022/10/08 12:07:23;;;;;;;6.68;1.80;;;15.10;99.90;;;;;;5150328;27;20039;-86
2022/10/08 12:10:04;;;;;;;8.43;1.67;;;15.20;99.90;;;;;;5120917;27;20051;-86
2022/10/08 12:12:49;;;;;;;6.88;1.42;;;15.30;99.90;;;;;;5138659;27;20495;-85
2022/10/08 12:15:23;;;;;;;10.40;2.42;;;15.20;99.90;;;;;;5137235;27;20436;-85
2022/10/08 12:17:52;;;;;;;7.43;2.88;;;15.20;99.90;;;;;;5140335;27;20087;-85
2022/10/08 12:20:22;;;;;;;15.02;4.43;;;15.10;99.90;;;;;;5140195;27;20043;-85
2022/10/08 12:23:03;;;;;;;16.70;5.53;;;15.00;99.90;;;;;;5139537;27;20079;-86
2022/10/08 12:25:39;;;;;;;16.02;4.38;;;14.90;99.90;;;;;;5141044;27;20423;-85
2022/10/08 12:28:20;;;;;;;8.07;3.13;;;14.80;99.90;;;;;;5155525;27;20070;-86
2022/10/08 12:31:01;;;;;;;10.77;2.30;;;14.80;99.90;;;;;;5136486;27;20039;-85
2022/10/08 12:33:28;;;;;;;10.45;1.80;;;14.80;99.90;;;;;;5140134;27;20050;-85
2022/10/08 12:36:12;;;;;;;8.20;2.05;;;14.90;99.90;;;;;;5139129;27;20475;-85
2022/10/08 12:38:52;;;;;;;8.35;1.30;;;14.90;99.90;;;;;;5138991;27;20114;-84
2022/10/08 12:41:43;;;;;;;10.68;1.98;;;15.00;99.90;;;;;;5153094;27;20037;-86
2022/10/08 12:44:26;;;;;;;7.00;1.50;;;15.10;99.90;;;;;;5136596;27;20030;-87
2022/10/08 12:46:59;;;;;;;6.88;1.30;;;15.20;99.90;;;;;;5145230;27;20042;-86
2022/10/08 12:49:36;;;;;;;7.28;1.70;;;15.30;99.90;;;;;;5156420;27;20094;-85
2022/10/08 12:52:11;;;;;;;8.52;1.52;;;15.40;99.90;;;;;;5139258;27;20118;-85
2022/10/08 12:54:54;;;;;;;8.57;1.63;;;15.40;99.90;;;;;;5135860;27;20371;-86
2022/10/08 12:57:37;;;;;;;10.30;1.83;;;15.40;99.90;;;;;;5139512;27;20517;-86
2022/10/08 13:00:34;;;;;;;7.88;1.60;;;15.40;99.90;;;;;;5149750;27;20074;-85
2022/10/08 13:03:04;;;;;;;4.93;1.35;;;15.40;99.90;;;;;;5138132;27;20085;-86
2022/10/08 13:05:31;;;;;;;8.45;1.50;;;15.30;99.90;;;;;;5147435;27;20439;-86
2022/10/08 13:07:58;;;;;;;6.20;1.30;;;15.20;99.90;;;;;;5139585;27;20378;-86
2022/10/08 13:10:27;;;;;;;9.60;1.58;;;15.20;99.90;;;;;;5155525;27;20423;-86
2022/10/08 13:13:04;;;;;;;9.27;1.52;;;15.10;99.90;;;;;;5134311;28;20036;-85
2022/10/08 13:15:32;;;;;;;9.98;2.33;;;15.00;99.90;;;;;;5155363;27;20083;-85
2022/10/08 13:17:59;;;;;;;6.05;1.48;;;14.90;99.90;;;;;;5132519;27;20031;-86
2022/10/08 13:20:25;;;;;;;8.63;1.40;;;15.00;99.90;;;;;;5138822;27;20035;-85
2022/10/08 13:22:51;;;;;;;11.82;2.13;;;15.00;99.90;;;;;;5139400;27;20035;-85
2022/10/08 13:25:35;;;;;;;9.02;1.60;;;15.00;99.90;;;;;;5121803;27;20030;-85
2022/10/08 13:28:10;;;;;;;4.22;1.30;;;15.00;99.90;;;;;;5134676;27;20038;-85
2022/10/08 13:30:36;;;;;;;4.43;1.27;;;14.90;99.90;;;;;;5139967;27;20046;-85
2022/10/08 13:33:14;;;;;;;8.68;1.90;;;14.80;99.90;;;;;;5118820;28;20039;-85
2022/10/08 13:35:58;;;;;;;8.93;1.80;;;14.80;99.90;;;;;;5137604;27;20115;-85
2022/10/08 13:38:30;;;;;;;7.22;2.10;;;14.80;99.90;;;;;;5130722;27;20046;-85
2022/10/08 13:41:01;;;;;;;7.43;1.45;;;14.80;99.90;;;;;;5133066;28;20099;-84
2022/10/08 13:43:28;;;;;;;6.45;1.67;;;14.80;99.90;;;;;;5154506;27;20035;-85
2022/10/08 13:45:55;;;;;;;9.45;1.85;;;14.80;99.90;;;;;;5138820;27;20067;-85
2022/10/08 13:48:21;;;;;;;9.05;1.90;;;14.90;99.90;;;;;;5159204;27;20043;-85
2022/10/08 13:50:49;;;;;;;7.20;1.73;;;14.90;99.90;;;;;;5141002;27;20049;-86
2022/10/08 13:53:20;;;;;;;8.40;1.63;;;15.00;99.90;;;;;;5136989;27;20054;-86
2022/10/08 13:55:48;;;;;;;11.63;1.60;;;15.10;99.90;;;;;;5139799;27;20603;-86
2022/10/08 13:58:16;;;;;;;7.10;1.60;;;15.10;99.90;;;;;;5141533;27;20051;-86
2022/10/08 14:00:44;;;;;;;10.95;1.50;;;15.10;99.90;;;;;;5143943;27;20528;-87
2022/10/08 14:03:09;;;;;;;8.80;1.52;;;15.10;99.90;;;;;;5146267;27;20038;-86
2022/10/08 14:05:39;;;;;;;7.03;1.50;;;15.10;99.90;;;;;;5135190;27;20043;-86
2022/10/08 14:08:11;;;;;;;10.75;1.70;;;15.10;99.90;;;;;;5152410;27;20035;-86
2022/10/08 14:10:39;;;;;;;8.52;2.08;;;15.10;99.90;;;;;;5157055;27;20043;-86
2022/10/08 14:13:05;;;;;;;9.32;1.52;;;15.10;99.90;;;;;;5158136;27;20039;-86
2022/10/08 14:15:31;;;;;;;9.07;2.58;;;15.10;99.90;;;;;;5124854;27;20041;-86
2022/10/08 14:17:57;;;;;;;8.20;1.60;;;15.20;99.90;;;;;;5141384;27;20034;-86
2022/10/08 14:20:23;;;;;;;9.05;1.83;;;15.40;99.90;;;;;;5122826;27;20035;-85
2022/10/08 14:22:49;;;;;;;7.07;1.67;;;15.40;99.90;;;;;;5106784;27;20038;-86
2022/10/08 14:25:21;;;;;;;7.20;1.90;;;15.50;99.90;;;;;;5141719;27;20042;-84